Time;durP1;ratioP1;P1;durP2;ratioP2;P2;SDS_P1;SDS_P2;PMS_P1;PMS_P2;Temp;Humidity;BMP_temperature;BMP_pressure;BME280_temperature;BME280_humidity;BME280_pressure;Samples;Min_cycle;Max_cycle;Signal;HPM_P1;HPM_P2
2021/12/08 00:00:21;;;;;;;;;1.00;0.00;;;;;13.72;100.00;99142.81;5066551;28;47532;-83
2021/12/08 00:02:47;;;;;;;;;0.00;0.00;;;;;13.74;100.00;99153.28;5075921;27;45232;-82
2021/12/08 00:05:15;;;;;;;;;3.00;0.00;;;;;13.74;100.00;99148.81;5080070;28;45386;-82
2021/12/08 00:07:41;;;;;;;;;2.00;0.00;;;;;13.76;100.00;99151.25;5079542;27;45260;-82
2021/12/08 00:10:28;;;;;;;;;1.00;0.00;;;;;13.71;100.00;99138.50;5074695;28;45473;-82
2021/12/08 00:13:04;;;;;;;;;1.50;0.00;;;;;13.56;100.00;99132.19;5078515;28;45339;-82
2021/12/08 00:15:36;;;;;;;;;0.00;0.00;;;;;13.65;100.00;99143.63;5079613;28;45428;-82
2021/12/08 00:18:05;;;;;;;;;0.00;0.00;;;;;13.51;100.00;99136.28;5054254;28;45970;-82
2021/12/08 00:20:32;;;;;;;;;0.25;0.00;;;;;13.56;100.00;99148.09;5082128;27;46244;-82
2021/12/08 00:22:59;;;;;;;;;0.00;0.00;;;;;13.58;100.00;99142.59;5063745;27;45802;-82
2021/12/08 00:25:25;;;;;;;;;1.25;0.00;;;;;13.53;100.00;99135.16;5081503;27;45450;-82
2021/12/08 00:27:50;;;;;;;;;0.00;0.00;;;;;13.33;100.00;99129.28;5077951;27;45674;-82
2021/12/08 00:30:17;;;;;;;;;1.75;0.00;;;;;13.38;100.00;99142.06;5084227;27;45329;-82
2021/12/08 00:32:44;;;;;;;;;0.00;0.00;;;;;13.24;100.00;99132.06;5081443;27;45537;-82
2021/12/08 00:35:11;;;;;;;;;0.00;0.00;;;;;13.22;100.00;99126.91;5061438;27;45423;-82
2021/12/08 00:37:37;;;;;;;;;2.75;0.00;;;;;13.35;100.00;99131.78;5070245;28;45449;-82
2021/12/08 00:40:05;;;;;;;;;1.50;0.00;;;;;13.41;100.00;99129.28;5057189;28;47260;-82
2021/12/08 00:42:31;;;;;;;;;0.75;0.75;;;;;13.35;100.00;99131.78;5073900;28;45300;-83
2021/12/08 00:44:58;;;;;;;;;0.00;0.00;;;;;13.10;100.00;99128.16;5082299;28;45562;-82
2021/12/08 00:47:24;;;;;;;;;1.00;0.00;;;;;12.94;100.00;99144.78;5081028;28;45544;-82
2021/12/08 00:49:49;;;;;;;;;0.00;0.00;;;;;13.09;100.00;99160.97;5070765;28;46102;-82
2021/12/08 00:52:15;;;;;;;;;3.00;0.00;;;;;13.12;100.00;99164.09;5081741;27;45295;-82
2021/12/08 00:54:41;;;;;;;;;0.75;0.00;;;;;13.27;100.00;99182.13;5079992;28;46906;-82
2021/12/08 00:57:08;;;;;;;;;1.00;0.00;;;;;13.10;100.00;99173.22;5061594;28;45569;-82
2021/12/08 00:59:33;;;;;;;;;1.00;0.00;;;;;13.02;100.00;99163.38;5081635;28;45337;-83
2021/12/08 01:02:02;;;;;;;;;0.00;0.00;;;;;13.07;100.00;99166.41;5087664;27;45241;-82
2021/12/08 01:04:32;;;;;;;;;0.50;0.00;;;;;13.28;100.00;99176.66;5081391;27;45373;-82
2021/12/08 01:06:59;;;;;;;;;1.75;0.00;;;;;13.27;100.00;99175.00;5051888;28;45414;-82
2021/12/08 01:09:24;;;;;;;;;1.25;0.00;;;;;13.23;100.00;99172.81;5072750;28;47155;-81
2021/12/08 01:11:50;;;;;;;;;3.00;0.50;;;;;13.13;100.00;99170.22;5068323;28;45820;-82
2021/12/08 01:14:16;;;;;;;;;1.00;0.00;;;;;13.16;100.00;99177.09;5063153;28;45235;-82
2021/12/08 01:16:42;;;;;;;;;1.00;0.00;;;;;12.84;100.00;99180.38;5083162;27;45440;-82
2021/12/08 01:19:08;;;;;;;;;2.75;0.00;;;;;12.93;100.00;99169.63;5093459;27;46312;-82
2021/12/08 01:21:33;;;;;;;;;0.00;0.00;;;;;13.06;100.00;99169.22;5077327;27;46419;-82
2021/12/08 01:23:59;;;;;;;;;1.50;0.00;;;;;13.03;100.00;99170.34;5084001;27;45408;-82
2021/12/08 01:26:26;;;;;;;;;0.00;0.00;;;;;12.74;100.00;99162.75;5082050;27;45419;-82
2021/12/08 01:28:55;;;;;;;;;1.00;0.00;;;;;12.64;100.00;99158.53;5063310;28;47467;-82
2021/12/08 01:31:21;;;;;;;;;2.75;0.00;;;;;12.64;100.00;99142.66;5081401;28;45225;-82
2021/12/08 01:33:47;;;;;;;;;2.75;0.00;;;;;12.95;100.00;99159.72;5089789;27;45351;-81
2021/12/08 01:36:12;;;;;;;;;1.00;0.00;;;;;12.96;100.00;99134.03;5066397;28;45458;-82
2021/12/08 01:38:38;;;;;;;;;0.00;0.00;;;;;13.00;100.00;99144.19;5081501;28;45377;-82
2021/12/08 01:41:04;;;;;;;;;1.25;0.00;;;;;13.00;100.00;99146.00;5081373;28;45519;-81
2021/12/08 01:43:41;;;;;;;;;0.00;0.00;;;;;12.78;100.00;99143.88;5063100;28;45369;-81
2021/12/08 01:46:09;;;;;;;;;0.00;0.00;;;;;12.84;100.00;99145.94;5080899;28;45303;-82
2021/12/08 01:48:39;;;;;;;;;0.00;0.00;;;;;12.86;100.00;99165.94;5080926;28;46343;-82
2021/12/08 01:51:13;;;;;;;;;0.00;0.00;;;;;12.92;100.00;99178.59;5064968;27;45635;-81
2021/12/08 01:53:41;;;;;;;;;0.00;0.00;;;;;12.68;100.00;99197.78;5078728;27;45435;-81
2021/12/08 01:56:10;;;;;;;;;2.00;0.00;;;;;12.81;100.00;99193.91;5083294;27;45239;-82
2021/12/08 01:58:36;;;;;;;;;0.00;0.00;;;;;12.86;100.00;99194.25;5082268;27;45287;-82
2021/12/08 02:01:05;;;;;;;;;1.00;0.00;;;;;12.85;100.00;99176.69;5100924;27;45268;-82
2021/12/08 02:03:31;;;;;;;;;0.25;0.25;;;;;12.79;100.00;99185.28;5100574;27;45502;-82
2021/12/08 02:05:57;;;;;;;;;0.25;0.00;;;;;12.66;100.00;99202.41;5101528;27;45514;-83
2021/12/08 02:08:24;;;;;;;;;0.00;0.00;;;;;12.73;100.00;99202.63;5101008;27;45418;-82
2021/12/08 02:10:50;;;;;;;;;2.00;0.00;;;;;12.63;100.00;99204.53;5087807;27;45429;-82
2021/12/08 02:13:16;;;;;;;;;0.00;0.00;;;;;12.81;100.00;99210.63;5083368;27;45304;-82
2021/12/08 02:15:42;;;;;;;;;0.00;0.00;;;;;12.83;100.00;99213.13;5101358;27;45294;-82
2021/12/08 02:18:13;;;;;;;;;0.00;0.00;;;;;12.91;100.00;99221.97;5084015;27;48316;-82
2021/12/08 02:20:41;;;;;;;;;0.00;0.00;;;;;12.83;100.00;99236.97;5096946;27;45421;-82
2021/12/08 02:23:06;;;;;;;;;0.50;0.00;;;;;12.78;100.00;99241.88;5062398;28;45458;-82
2021/12/08 02:25:32;;;;;;;;;1.50;1.00;;;;;12.76;100.00;99244.69;5063931;28;45731;-82
2021/12/08 02:28:00;;;;;;;;;2.00;0.00;;;;;12.70;100.00;99262.03;5061986;28;46963;-82
2021/12/08 02:46:45;;;;;;;;;0.50;0.00;;;;;12.36;100.00;99243.38;5080521;28;45414;-82
2021/12/08 02:49:11;;;;;;;;;0.00;0.00;;;;;12.28;100.00;99251.25;5080365;28;46482;-82
2021/12/08 02:51:37;;;;;;;;;0.25;0.00;;;;;12.15;100.00;99228.75;5080762;27;45200;-81
2021/12/08 02:54:04;;;;;;;;;0.00;0.00;;;;;12.12;100.00;99247.56;5081944;28;45249;-82
2021/12/08 02:56:30;;;;;;;;;0.00;0.00;;;;;12.06;100.00;99259.59;5071909;28;45422;-82
2021/12/08 02:58:57;;;;;;;;;2.25;0.00;;;;;12.22;100.00;99258.94;5099089;27;45238;-82
2021/12/08 03:01:23;;;;;;;;;0.00;0.00;;;;;12.19;100.00;99252.16;5082034;27;45750;-82
2021/12/08 03:03:49;;;;;;;;;0.00;0.00;;;;;12.04;100.00;99247.50;5100347;27;45283;-82
2021/12/08 03:06:17;;;;;;;;;0.00;0.00;;;;;12.16;100.00;99235.72;5081964;27;45706;-82
2021/12/08 03:08:42;;;;;;;;;0.00;0.00;;;;;12.43;100.00;99254.19;5081779;27;48376;-82
2021/12/08 03:11:08;;;;;;;;;1.00;0.00;;;;;12.34;100.00;99234.75;5067499;28;45976;-82
2021/12/08 03:13:44;;;;;;;;;0.00;0.00;;;;;12.40;100.00;99217.41;5072164;28;45384;-82
2021/12/08 03:16:11;;;;;;;;;0.00;0.00;;;;;12.12;100.00;99213.19;5066884;28;45305;-82
2021/12/08 03:18:39;;;;;;;;;1.50;0.00;;;;;12.10;100.00;99238.97;5079747;28;46423;-82
2021/12/08 03:21:07;;;;;;;;;1.00;0.00;;;;;12.17;100.00;99218.88;5080119;28;45605;-82
2021/12/08 03:24:22;;;;;;;;;0.00;0.00;;;;;12.09;100.00;99221.44;5084749;27;45220;-82
2021/12/08 03:26:26;;;;;;;;;0.75;0.00;;;;;12.11;100.00;99209.69;5081104;28;45422;-82
2021/12/08 03:28:59;;;;;;;;;3.50;0.00;;;;;12.41;100.00;99221.72;5085196;27;46158;-82
2021/12/08 03:31:31;;;;;;;;;0.00;0.00;;;;;12.38;100.00;99208.81;5065214;28;45603;-82
2021/12/08 03:33:56;;;;;;;;;0.00;0.00;;;;;12.37;100.00;99199.22;5083682;28;45421;-82
2021/12/08 03:36:22;;;;;;;;;0.50;0.00;;;;;12.35;100.00;99190.59;5081756;28;45443;-82
2021/12/08 03:38:47;;;;;;;;;0.00;0.00;;;;;12.18;100.00;99188.78;5083313;28;46670;-82
2021/12/08 03:41:13;;;;;;;;;2.00;0.00;;;;;12.46;100.00;99193.00;5082905;28;45470;-82
2021/12/08 03:43:38;;;;;;;;;1.00;0.00;;;;;12.47;100.00;99205.25;5083629;28;45490;-82
2021/12/08 03:46:05;;;;;;;;;0.00;0.00;;;;;12.28;100.00;99190.38;5083205;28;45542;-82
2021/12/08 03:48:46;;;;;;;;;0.00;0.00;;;;;12.38;100.00;99205.34;5082960;27;45615;-82
2021/12/08 03:51:12;;;;;;;;;0.75;0.00;;;;;12.32;100.00;99197.00;5083164;28;45308;-82
2021/12/08 03:53:38;;;;;;;;;3.50;0.25;;;;;12.42;100.00;99206.69;5083256;28;45435;-82
2021/12/08 03:56:04;;;;;;;;;2.00;0.00;;;;;12.41;100.00;99189.13;5081863;27;45308;-82
2021/12/08 03:58:29;;;;;;;;;0.00;0.00;;;;;12.36;100.00;99190.44;5082837;28;46911;-82
2021/12/08 04:00:57;;;;;;;;;0.00;0.00;;;;;12.50;100.00;99207.56;5083841;28;45406;-82
2021/12/08 04:03:26;;;;;;;;;1.00;0.00;;;;;12.44;100.00;99204.72;5083007;28;45294;-82
2021/12/08 04:05:55;;;;;;;;;2.25;0.00;;;;;12.57;100.00;99207.78;5083019;28;45443;-82
2021/12/08 04:08:43;;;;;;;;;1.00;0.00;;;;;12.48;100.00;99204.25;5082731;28;45284;-82
2021/12/08 04:11:11;;;;;;;;;2.00;0.25;;;;;12.42;100.00;99196.91;5082413;27;45634;-82
2021/12/08 04:13:48;;;;;;;;;0.00;0.00;;;;;12.38;100.00;99198.22;5084005;27;45584;-82
2021/12/08 04:16:17;;;;;;;;;0.75;0.50;;;;;12.37;100.00;99199.22;5102952;27;45417;-82
2021/12/08 04:18:43;;;;;;;;;0.00;0.00;;;;;12.19;100.00;99193.94;5084502;27;47032;-82
2021/12/08 04:21:10;;;;;;;;;0.00;0.00;;;;;12.04;100.00;99203.34;5092727;27;45450;-82
2021/12/08 04:23:39;;;;;;;;;0.00;0.00;;;;;12.10;100.00;99201.94;5089319;27;45295;-82
2021/12/08 04:26:13;;;;;;;;;0.25;0.00;;;;;12.11;100.00;99199.13;5102689;27;45586;-82
2021/12/08 04:28:39;;;;;;;;;6.50;0.00;;;;;12.09;100.00;99201.09;5102978;27;45563;-82
2021/12/08 04:31:20;;;;;;;;;0.00;0.00;;;;;12.25;100.00;99203.91;5103088;27;46884;-82
2021/12/08 04:33:48;;;;;;;;;0.00;0.00;;;;;12.31;100.00;99200.63;5104576;27;45206;-82
2021/12/08 04:36:16;;;;;;;;;0.00;0.00;;;;;12.28;100.00;99213.34;5104670;27;45333;-82
2021/12/08 04:38:45;;;;;;;;;0.75;0.00;;;;;12.30;100.00;99208.72;5084339;27;47285;-82
2021/12/08 04:41:25;;;;;;;;;1.00;0.00;;;;;12.31;100.00;99218.31;5102556;27;45172;-82
2021/12/08 04:44:05;;;;;;;;;0.00;0.00;;;;;12.38;100.00;99216.75;5103015;27;45458;-82
2021/12/08 04:46:56;;;;;;;;;0.00;0.00;;;;;12.23;100.00;99212.97;5102946;27;45383;-82
2021/12/08 04:50:25;;;;;;;;;1.00;0.00;;;;;12.22;100.00;99198.91;5102418;27;45598;-82
2021/12/08 04:52:24;;;;;;;;;1.25;0.50;;;;;12.26;100.00;99232.03;5088013;27;45363;-82
2021/12/08 05:04:04;;;;;;;;;1.75;0.00;;;;;12.30;100.00;99236.03;5082014;28;45338;-82
2021/12/08 05:06:38;;;;;;;;;0.25;0.00;;;;;12.31;100.00;99248.28;5082020;28;45502;-82
2021/12/08 05:09:15;;;;;;;;;1.00;0.00;;;;;12.33;100.00;99256.91;5069702;28;45343;-82
2021/12/08 05:11:46;;;;;;;;;3.25;0.00;;;;;12.25;100.00;99237.47;5081482;27;46463;-82
2021/12/08 05:14:20;;;;;;;;;0.00;0.00;;;;;12.24;100.00;99246.38;5079122;28;45533;-82
2021/12/08 05:16:48;;;;;;;;;2.50;0.00;;;;;12.23;100.00;99247.38;5081672;28;45508;-82
2021/12/08 05:19:16;;;;;;;;;5.00;0.00;;;;;12.12;100.00;99256.34;5081365;28;45355;-82
2021/12/08 05:22:09;;;;;;;;;1.00;1.00;;;;;12.17;100.00;99237.41;5078095;28;46538;-82
2021/12/08 05:24:39;;;;;;;;;0.00;0.00;;;;;12.02;100.00;99254.78;5098603;27;45405;-82
2021/12/08 05:27:07;;;;;;;;;1.00;0.00;;;;;12.03;100.00;99251.94;5101695;27;45450;-82
2021/12/08 05:29:38;;;;;;;;;7.00;0.00;;;;;12.01;100.00;99253.09;5102254;27;45338;-82
2021/12/08 05:32:05;;;;;;;;;0.00;0.00;;;;;12.03;100.00;99272.28;5101799;27;45306;-82
2021/12/08 05:34:31;;;;;;;;;2.50;1.00;;;;;11.96;100.00;99266.75;5083454;27;45422;-82
2021/12/08 05:36:57;;;;;;;;;0.00;0.00;;;;;12.10;100.00;99273.38;5101989;27;45484;-82
2021/12/08 05:39:25;;;;;;;;;1.50;0.50;;;;;11.99;100.00;99277.06;5102054;27;45378;-82
2021/12/08 05:41:56;;;;;;;;;1.00;0.00;;;;;12.08;100.00;99272.69;5104199;27;48297;-82
2021/12/08 05:44:22;;;;;;;;;2.00;0.50;;;;;11.84;100.00;99274.06;5101063;27;45221;-82
2021/12/08 05:46:52;;;;;;;;;0.75;0.00;;;;;11.88;100.00;99293.13;5101938;27;45317;-80
2021/12/08 05:49:18;;;;;;;;;2.50;1.00;;;;;11.78;100.00;99282.59;5101153;27;45462;-81
2021/12/08 05:51:46;;;;;;;;;2.00;0.00;;;;;11.76;100.00;99266.03;5083055;27;47199;-81
2021/12/08 05:54:17;;;;;;;;;0.50;0.00;;;;;11.73;100.00;99278.69;5083336;27;45577;-80
2021/12/08 05:56:43;;;;;;;;;1.00;0.25;;;;;11.66;100.00;99273.13;5057454;28;45456;-80
2021/12/08 05:59:12;;;;;;;;;0.75;0.75;;;;;11.68;100.00;99273.84;5072638;28;45407;-80
2021/12/08 06:01:57;;;;;;;;;6.25;0.50;;;;;11.59;100.00;99280.84;5080846;28;45399;-80
2021/12/08 06:04:26;;;;;;;;;0.00;0.00;;;;;11.47;100.00;99262.69;5080523;28;45412;-80
2021/12/08 06:07:05;;;;;;;;;2.50;1.00;;;;;11.56;100.00;99245.94;5114237;27;45396;-80
2021/12/08 06:09:32;;;;;;;;;1.00;1.00;;;;;11.66;100.00;99275.78;5074604;28;45392;-80
2021/12/08 06:11:58;;;;;;;;;7.25;2.00;;;;;11.53;100.00;99262.09;5076312;28;45502;-81
2021/12/08 06:14:31;;;;;;;;;2.00;0.00;;;;;11.42;100.00;99278.13;5067635;28;45372;-81
2021/12/08 06:16:57;;;;;;;;;1.25;0.00;;;;;11.40;100.00;99261.56;5074591;28;47500;-81
2021/12/08 06:19:23;;;;;;;;;0.50;0.50;;;;;11.40;100.00;99272.97;5076575;27;45420;-82
2021/12/08 06:21:49;;;;;;;;;3.75;0.00;;;;;11.55;100.00;99257.50;5066606;27;45510;-81
2021/12/08 06:24:16;;;;;;;;;0.00;0.00;;;;;11.67;100.00;99250.19;5076380;28;45336;-82
2021/12/08 06:26:42;;;;;;;;;1.50;1.00;;;;;11.61;100.00;99264.84;5069046;27;46108;-81
2021/12/08 06:29:11;;;;;;;;;2.00;1.00;;;;;11.60;100.00;99274.56;5076362;27;45475;-81
2021/12/08 06:31:38;;;;;;;;;0.00;0.00;;;;;11.54;100.00;99279.63;5075700;28;45367;-80
2021/12/08 06:34:06;;;;;;;;;4.25;1.00;;;;;11.44;100.00;99269.09;5073407;28;45351;-81
2021/12/08 06:36:40;;;;;;;;;0.25;0.25;;;;;11.52;100.00;99292.97;5074917;28;45484;-81
2021/12/08 06:39:10;;;;;;;;;0.75;0.00;;;;;11.45;100.00;99291.06;5102639;27;45745;-81
2021/12/08 06:41:43;;;;;;;;;0.00;0.00;;;;;11.53;100.00;99302.56;5076557;28;45259;-84
2021/12/08 06:44:18;;;;;;;;;0.00;0.00;;;;;11.48;100.00;99298.69;5075985;28;45437;-84
2021/12/08 06:46:45;;;;;;;;;1.00;0.00;;;;;11.46;100.00;99312.06;5090364;27;46319;-83
2021/12/08 06:49:12;;;;;;;;;2.00;0.00;;;;;11.55;100.00;99310.38;5076904;28;45461;-83
2021/12/08 06:51:56;;;;;;;;;0.50;0.00;;;;;11.38;100.00;99300.56;5091244;27;46460;-84
2021/12/08 06:54:32;;;;;;;;;1.50;1.00;;;;;11.35;100.00;99292.91;5074511;27;45446;-83
2021/12/08 06:57:07;;;;;;;;;4.25;0.50;;;;;11.41;100.00;99303.72;5076562;28;45434;-83
2021/12/08 06:59:40;;;;;;;;;0.00;0.00;;;;;11.37;100.00;99291.78;5077557;27;45667;-83
2021/12/08 07:02:19;;;;;;;;;1.25;0.00;;;;;11.42;100.00;99302.75;5074902;28;45201;-83
2021/12/08 07:05:09;;;;;;;;;1.00;0.00;;;;;11.44;100.00;99299.97;5075005;28;45161;-83
2021/12/08 07:07:36;;;;;;;;;2.00;1.00;;;;;11.32;100.00;99293.16;5083333;27;46315;-83
2021/12/08 07:10:10;;;;;;;;;0.75;0.75;;;;;11.48;100.00;99294.22;5081954;27;45941;-82
2021/12/08 07:12:40;;;;;;;;;5.00;1.00;;;;;11.56;100.00;99301.47;5074911;27;45374;-83
2021/12/08 07:15:09;;;;;;;;;3.50;0.75;;;;;11.53;100.00;99294.66;5062589;28;45383;-83
2021/12/08 07:17:38;;;;;;;;;5.75;1.00;;;;;11.64;100.00;99298.91;5076753;27;46977;-83
2021/12/08 07:23:00;;;;;;;;;4.00;1.00;;;;;11.57;100.00;99296.00;5058911;28;45394;-82
2021/12/08 07:25:29;;;;;;;;;4.25;0.50;;;;;11.57;100.00;99309.22;5061767;28;45446;-83
2021/12/08 07:27:55;;;;;;;;;2.75;1.00;;;;;11.31;100.00;99320.56;5062118;28;48203;-81
2021/12/08 07:30:30;;;;;;;;;2.00;1.00;;;;;11.49;100.00;99314.41;5059107;28;45377;-81
2021/12/08 07:32:56;;;;;;;;;0.00;0.00;;;;;11.18;100.00;99312.97;5074165;28;45467;-80
2021/12/08 07:35:30;;;;;;;;;2.00;0.00;;;;;11.31;100.00;99307.34;5059030;28;45417;-80
2021/12/08 07:37:57;;;;;;;;;1.25;0.00;;;;;11.05;100.00;99305.34;5057858;28;46435;-80
2021/12/08 07:41:06;;;;;;;;;1.50;1.00;;;;;11.10;100.00;99302.28;5067300;28;45454;-80
2021/12/08 07:43:33;;;;;;;;;5.00;1.00;;;;;10.87;100.00;99310.50;5054726;28;45450;-80
2021/12/08 07:46:08;;;;;;;;;1.00;0.00;;;;;10.99;100.00;99305.06;5073788;28;45528;-80
2021/12/08 07:48:47;;;;;;;;;1.75;1.00;;;;;10.96;100.00;99303.53;5059690;28;45793;-81
2021/12/08 07:51:23;;;;;;;;;0.50;0.50;;;;;11.12;100.00;99313.50;5061495;28;45567;-81
2021/12/08 07:53:49;;;;;;;;;3.50;0.00;;;;;10.79;100.00;99309.53;5058089;28;45444;-81
2021/12/08 07:56:17;;;;;;;;;5.50;0.75;;;;;10.71;100.00;99312.03;5077222;28;45378;-83
2021/12/08 07:58:48;;;;;;;;;1.75;0.50;;;;;10.80;100.00;99317.31;5061171;28;46175;-82
2021/12/08 08:01:18;;;;;;;;;1.50;1.50;;;;;10.84;100.00;99305.50;5059587;28;45462;-81
2021/12/08 08:03:44;;;;;;;;;0.00;0.00;;;;;10.99;100.00;99307.72;5059487;28;45501;-82
2021/12/08 08:06:15;;;;;;;;;2.75;0.00;;;;;11.11;100.00;99309.22;5055080;28;45233;-81
2021/12/08 08:12:38;;;;;;;;;1.00;1.00;;;;;11.28;100.00;99311.16;5048345;28;45482;-85
2021/12/08 08:15:54;;;;;;;;;;;;;;;;;;;;;
2021/12/08 08:18:27;;;;;;;;;1.00;1.00;;;;;11.15;100.00;99314.09;5055928;28;72942;-83
2021/12/08 08:21:12;;;;;;;;;;;;;;;;;;;;;
2021/12/08 08:27:51;;;;;;;;;2.00;0.00;;;;;11.55;100.00;99303.28;5054056;28;45470;-83
2021/12/08 08:30:21;;;;;;;;;3.00;0.00;;;;;11.64;100.00;99325.38;5057605;28;46160;-83
2021/12/08 08:33:00;;;;;;;;;0.75;0.75;;;;;11.63;100.00;99331.63;5058478;28;45657;-83
2021/12/08 08:35:31;;;;;;;;;3.75;0.00;;;;;11.46;100.00;99345.59;5059123;28;45551;-83
2021/12/08 08:37:59;;;;;;;;;5.00;1.00;;;;;11.52;100.00;99345.00;5056469;28;45396;-83
2021/12/08 08:40:48;;;;;;;;;2.00;0.50;;;;;11.75;100.00;99354.28;5089873;27;45546;-83
2021/12/08 08:43:23;;;;;;;;;6.00;1.00;;;;;11.68;100.00;99350.53;5073232;28;47424;-83
2021/12/08 08:45:55;;;;;;;;;1.25;0.00;;;;;11.58;100.00;99349.72;5055148;28;45262;-83
2021/12/08 08:48:31;;;;;;;;;5.50;1.00;;;;;11.81;100.00;99350.25;5057618;28;45421;-83
2021/12/08 08:51:02;;;;;;;;;6.50;0.00;;;;;11.65;100.00;99358.75;5057722;28;45377;-83
2021/12/08 08:53:34;;;;;;;;;5.00;1.00;;;;;11.90;100.00;99355.50;5058514;28;45467;-83
2021/12/08 08:56:45;;;;;;;;;;;;;;;;;;;;;
2021/12/08 08:59:27;;;;;;;;;;;;;;;;;;;;;
2021/12/08 09:01:55;;;;;;;;;1.75;1.00;;;;;12.13;100.00;99340.03;5055552;28;72993;-83
2021/12/08 09:04:34;;;;;;;;;4.75;1.00;;;;;12.43;100.00;99346.00;5059956;28;45680;-83
2021/12/08 09:07:04;;;;;;;;;3.00;0.00;;;;;12.30;100.00;99346.34;5058085;28;45894;-83
2021/12/08 09:09:52;;;;;;;;;0.25;0.25;;;;;12.38;100.00;99337.69;5058270;28;45580;-84
2021/12/08 09:12:30;;;;;;;;;2.00;0.00;;;;;12.38;100.00;99355.22;5057390;28;45237;-83
2021/12/08 09:15:08;;;;;;;;;3.00;1.25;;;;;12.46;100.00;99354.50;5056080;28;45479;-84
2021/12/08 09:17:49;;;;;;;;;5.75;2.00;;;;;12.35;100.00;99367.94;5053421;28;45811;-84
2021/12/08 09:20:26;;;;;;;;;1.00;1.00;;;;;12.47;100.00;99374.69;5057878;28;45519;-84
2021/12/08 09:23:13;;;;;;;;;;;;;;;;;;;;;
2021/12/08 09:25:52;;;;;;;;;1.00;1.00;;;;;12.49;100.00;99379.81;5056290;28;74049;-84
2021/12/08 09:28:33;;;;;;;;;2.75;1.00;;;;;12.59;100.00;99386.72;5055492;28;45462;-84
2021/12/08 09:31:38;;;;;;;;;2.00;1.00;;;;;12.83;100.00;99386.16;5051477;28;45570;-84
2021/12/08 09:34:19;;;;;;;;;3.00;1.75;;;;;12.89;100.00;99387.34;5014501;28;46784;-84
2021/12/08 09:36:49;;;;;;;;;2.75;0.00;;;;;12.93;100.00;99392.19;5056280;28;46065;-84
2021/12/08 09:39:25;;;;;;;;;1.50;0.25;;;;;13.03;100.00;99381.50;5059361;28;45692;-84
2021/12/08 09:41:59;;;;;;;;;2.00;0.00;;;;;13.02;100.00;99374.53;5055732;28;45946;-85
2021/12/08 09:44:33;;;;;;;;;1.00;1.00;;;;;13.07;100.00;99396.13;5055448;28;45398;-83
2021/12/08 09:46:59;;;;;;;;;7.25;2.00;;;;;12.99;100.00;99393.41;5053298;28;46689;-83
2021/12/08 09:49:26;;;;;;;;;2.50;1.50;;;;;13.28;100.00;99388.75;5054567;28;45871;-79
2021/12/08 09:51:54;;;;;;;;;2.00;1.00;;;;;13.47;100.00;99393.81;5070635;27;45431;-81
2021/12/08 09:54:19;;;;;;;;;6.25;2.00;;;;;13.69;100.00;99400.44;5051125;28;45556;-82
2021/12/08 09:56:48;;;;;;;;;1.00;1.00;;;;;13.66;97.15;99394.63;5059677;28;45413;-82
2021/12/08 09:59:15;;;;;;;;;6.75;1.00;;;;;13.75;96.52;99396.34;5059595;28;45741;-83
2021/12/08 10:01:42;;;;;;;;;4.50;1.00;;;;;13.77;96.63;99383.75;5059065;28;45422;-83
2021/12/08 10:04:10;;;;;;;;;1.50;1.00;;;;;13.83;97.36;99388.44;5060069;28;45173;-82
2021/12/08 10:06:39;;;;;;;;;1.25;1.00;;;;;13.95;98.29;99383.69;5059403;27;45239;-83
2021/12/08 10:09:05;;;;;;;;;1.75;0.25;;;;;14.06;99.82;99370.97;5060189;28;45358;-83
2021/12/08 10:11:32;;;;;;;;;1.50;1.00;;;;;14.16;94.00;99384.97;5061077;28;45442;-83
2021/12/08 10:13:59;;;;;;;;;4.00;1.00;;;;;14.28;91.79;99364.25;5063576;28;45446;-83
2021/12/08 10:16:26;;;;;;;;;2.25;1.50;;;;;14.33;91.98;99363.78;5055781;28;48262;-83
2021/12/08 10:18:56;;;;;;;;;3.00;1.00;;;;;14.38;92.85;99350.84;5057443;28;45481;-83
2021/12/08 10:21:32;;;;;;;;;2.00;2.00;;;;;14.70;95.69;99358.09;5059204;28;45409;-84
2021/12/08 10:23:57;;;;;;;;;2.25;1.00;;;;;14.88;89.33;99356.94;5058292;28;45263;-84
2021/12/08 10:26:24;;;;;;;;;2.00;0.25;;;;;14.82;88.16;99354.97;5059905;28;45486;-84
2021/12/08 10:28:55;;;;;;;;;3.75;0.00;;;;;15.16;86.05;99373.41;5059861;28;45323;-84
2021/12/08 10:31:28;;;;;;;;;1.00;1.00;;;;;15.19;82.00;99380.25;5058476;28;45493;-84
2021/12/08 10:34:09;;;;;;;;;1.25;0.00;;;;;15.55;82.52;99381.56;5075898;28;45572;-84
2021/12/08 10:36:46;;;;;;;;;3.00;1.00;;;;;15.58;79.74;99377.72;5059605;28;45344;-82
2021/12/08 10:39:32;;;;;;;;;0.50;0.00;;;;;16.02;79.63;99368.28;5060286;28;45307;-82
2021/12/08 10:42:05;;;;;;;;;3.00;1.00;;;;;16.05;78.48;99378.59;5047124;28;45347;-83
2021/12/08 10:44:55;;;;;;;;;5.00;2.00;;;;;16.23;82.72;99362.38;5047595;28;45139;-83
2021/12/08 10:47:30;;;;;;;;;3.00;2.00;;;;;16.46;78.40;99371.28;5052238;28;45705;-83
2021/12/08 10:55:17;;;;;;;;;2.25;2.00;;;;;17.28;73.74;99349.41;5065183;28;45379;-83
2021/12/08 10:57:46;;;;;;;;;4.50;2.00;;;;;17.51;74.40;99351.00;5053485;28;46135;-83
2021/12/08 11:00:27;;;;;;;;;3.25;1.50;;;;;17.69;71.18;99348.03;5062829;28;45780;-83
2021/12/08 11:02:56;;;;;;;;;3.00;1.00;;;;;17.90;69.04;99350.81;5062663;28;45244;-83
2021/12/08 11:05:24;;;;;;;;;3.50;1.00;;;;;18.01;66.91;99356.69;5071698;28;45419;-83
2021/12/08 11:08:08;;;;;;;;;4.50;1.00;;;;;18.08;70.27;99360.28;5060692;28;48197;-83
2021/12/08 11:10:48;;;;;;;;;3.25;2.00;;;;;17.91;65.95;99356.97;5067163;28;45430;-83
2021/12/08 11:13:16;;;;;;;;;2.50;2.00;;;;;17.91;65.22;99362.31;5065513;27;45311;-83
2021/12/08 11:15:47;;;;;;;;;4.00;2.25;;;;;17.63;63.56;99350.59;5062731;28;45246;-83
2021/12/08 11:18:20;;;;;;;;;2.50;2.25;;;;;17.66;64.85;99359.09;5093789;27;47179;-83
2021/12/08 11:20:55;;;;;;;;;3.00;2.00;;;;;17.83;67.18;99355.22;5070802;28;45373;-83
2021/12/08 11:23:42;;;;;;;;;3.50;1.00;;;;;17.87;66.01;99345.81;5059943;28;45533;-83
2021/12/08 11:26:13;;;;;;;;;5.25;2.25;;;;;17.95;63.59;99360.91;5057969;28;45517;-83
2021/12/08 11:28:40;;;;;;;;;5.50;2.25;;;;;17.71;63.75;99351.34;5061780;28;46233;-83
2021/12/08 11:31:10;;;;;;;;;10.75;3.00;;;;;17.78;65.58;99343.44;5055221;28;45500;-83
2021/12/08 11:33:41;;;;;;;;;3.00;1.25;;;;;17.99;65.00;99343.53;5057200;28;45280;-83
2021/12/08 11:36:17;;;;;;;;;2.25;1.50;;;;;18.04;63.00;99343.78;5054522;28;45457;-84
2021/12/08 11:38:45;;;;;;;;;9.25;5.75;;;;;18.16;62.94;99354.84;5060116;28;45277;-82
2021/12/08 11:41:29;;;;;;;;;2.00;1.75;;;;;18.28;63.13;99350.69;5059842;28;45330;-85
2021/12/08 11:43:57;;;;;;;;;1.50;1.00;;;;;18.39;60.57;99352.84;5046250;28;45427;-84
2021/12/08 11:46:26;;;;;;;;;4.00;2.75;;;;;18.29;61.41;99345.16;5058315;28;45447;-83
2021/12/08 11:49:06;;;;;;;;;4.50;2.50;;;;;18.32;62.75;99359.97;5062086;28;46452;-84
2021/12/08 11:51:49;;;;;;;;;4.50;1.75;;;;;18.46;62.75;99348.44;5061784;28;45227;-83
2021/12/08 11:54:44;;;;;;;;;5.50;3.50;;;;;18.40;60.36;99356.34;5061908;28;45504;-83
2021/12/08 11:57:16;;;;;;;;;1.75;1.50;;;;;18.47;60.63;99355.44;5060114;28;45319;-83
2021/12/08 11:59:49;;;;;;;;;10.75;5.75;;;;;18.44;60.71;99363.81;5061204;28;45562;-83
2021/12/08 12:02:15;;;;;;;;;1.75;1.75;;;;;18.60;61.66;99360.97;5076991;28;45231;-82
2021/12/08 12:04:42;;;;;;;;;6.00;5.00;;;;;18.43;60.25;99364.00;5061296;28;45533;-83
2021/12/08 12:07:10;;;;;;;;;3.50;1.00;;;;;18.56;60.85;99354.31;5060989;28;46248;-83
2021/12/08 12:09:36;;;;;;;;;1.75;0.00;;;;;18.56;58.37;99354.31;5068098;28;47193;-83
2021/12/08 12:12:01;;;;;;;;;6.00;1.25;;;;;18.61;59.83;99370.63;5062924;28;45305;-82
2021/12/08 12:14:28;;;;;;;;;3.75;2.00;;;;;18.56;60.17;99381.06;5060674;28;45440;-84
2021/12/08 12:16:54;;;;;;;;;2.25;1.00;;;;;18.60;60.00;99376.16;5059622;28;45429;-83
2021/12/08 12:19:24;;;;;;;;;3.50;2.00;;;;;18.52;59.75;99371.75;5060192;28;46577;-84
2021/12/08 12:22:47;;;;;;;;;4.00;2.00;;;;;18.62;59.44;99369.63;5061371;28;45239;-82
2021/12/08 12:25:24;;;;;;;;;6.75;4.00;;;;;18.85;59.71;99360.59;5000379;28;45410;-84
2021/12/08 12:28:14;;;;;;;;;2.50;1.00;;;;;19.14;59.51;99365.81;5060577;28;45383;-84
2021/12/08 12:31:04;;;;;;;;;3.50;2.00;;;;;18.93;59.17;99371.19;5069701;28;45478;-84
2021/12/08 12:33:40;;;;;;;;;5.00;2.75;;;;;18.79;57.72;99375.56;5062182;28;45708;-84
2021/12/08 12:36:20;;;;;;;;;1.50;1.50;;;;;18.99;58.67;99381.13;5063405;28;45539;-84